Time;durP1;ratioP1;P1;durP2;ratioP2;P2;SDS_P1;SDS_P2;PMS_P1;PMS_P2;Temp;Humidity;BMP_temperature;BMP_pressure;BME280_temperature;BME280_humidity;BME280_pressure;Samples;Min_cycle;Max_cycle;Signal;HPM_P1;HPM_P2
2023/01/18 00:01:02;;;;;;;2.45;0.60;;;;;;;9.73;81.19;100969.16;5003849;28;20050;-75
2023/01/18 00:03:33;;;;;;;0.70;0.30;;;;;;;9.72;80.89;100970.00;5002576;28;20088;-75
2023/01/18 00:06:02;;;;;;;2.33;0.52;;;;;;;9.72;81.29;100972.56;5007373;28;20134;-77
2023/01/18 00:08:32;;;;;;;0.55;0.40;;;;;;;9.72;82.04;100970.00;5006598;28;20053;-76
2023/01/18 00:11:04;;;;;;;0.98;0.40;;;;;;;9.71;82.48;100968.25;5005818;28;20054;-75
2023/01/18 00:13:33;;;;;;;0.60;0.30;;;;;;;9.71;82.58;100968.25;5006167;28;20132;-78
2023/01/18 00:16:06;;;;;;;0.55;0.35;;;;;;;9.70;82.89;100973.34;5004800;28;20056;-78
2023/01/18 00:18:35;;;;;;;;;;;;;;;9.67;83.72;100978.38;5007992;28;20057;-75
2023/01/18 00:21:05;;;;;;;1.90;0.50;;;;;;;9.64;83.53;100974.88;5003726;28;19925;-77
2023/01/18 00:23:40;;;;;;;1.15;0.50;;;;;;;9.62;83.78;100980.78;5006009;28;20046;-76
2023/01/18 00:26:11;;;;;;;2.22;0.52;;;;;;;9.55;84.80;100968.47;5004977;28;20041;-75
2023/01/18 00:28:40;;;;;;;0.75;0.47;;;;;;;9.62;85.88;100973.94;5006010;28;20128;-74
2023/01/18 00:31:13;;;;;;;1.67;0.80;;;;;;;9.59;86.47;100973.81;5002341;28;20053;-72
2023/01/18 00:33:44;;;;;;;;;;;;;;;9.57;87.39;100975.47;5003992;28;20057;-74
2023/01/18 00:36:14;;;;;;;2.90;0.90;;;;;;;9.54;88.04;100977.06;5003310;28;19928;-73
2023/01/18 00:38:43;;;;;;;0.93;0.40;;;;;;;9.49;88.48;100973.44;5005437;28;20420;-73
2023/01/18 00:41:11;;;;;;;2.60;0.40;;;;;;;9.37;89.87;100969.56;5004618;28;20045;-73
2023/01/18 00:43:39;;;;;;;2.45;0.50;;;;;;;9.31;90.51;100973.63;5007092;28;20516;-79
2023/01/18 00:46:08;;;;;;;1.13;0.60;;;;;;;9.31;91.99;100973.63;5005833;28;20049;-76
2023/01/18 00:48:37;;;;;;;0.28;0.25;;;;;;;9.23;93.76;100974.22;5003788;28;20061;-79
2023/01/18 00:51:08;;;;;;;1.98;0.43;;;;;;;9.16;94.32;100966.16;5013963;28;20058;-79
2023/01/18 00:53:38;;;;;;;1.65;0.47;;;;;;;9.14;98.08;100970.38;5005578;28;20076;-83
2023/01/18 00:56:09;;;;;;;0.98;0.45;;;;;;;9.13;98.36;100966.91;5008229;28;20131;-82
2023/01/18 00:58:38;;;;;;;3.92;0.50;;;;;;;9.09;98.32;100967.63;5010071;28;20058;-82
2023/01/18 01:01:08;;;;;;;0.95;0.40;;;;;;;9.04;99.00;100963.97;5005720;28;20054;-81
2023/01/18 01:09:11;;;;;;;3.75;0.50;;;;;;;8.97;100.00;100977.47;5005392;28;20057;-84
2023/01/18 01:12:31;;;;;;;0.60;0.40;;;;;;;8.97;100.00;100965.44;5004932;28;20053;-82
2023/01/18 01:28:17;;;;;;;4.78;0.65;;;;;;;8.90;100.00;100958.28;5005524;28;20172;-83
2023/01/18 01:30:46;;;;;;;0.90;0.50;;;;;;;8.91;100.00;100962.63;5004121;28;20046;-78
2023/01/18 01:33:14;;;;;;;0.98;0.40;;;;;;;8.90;100.00;100953.13;5002907;28;20496;-83
2023/01/18 01:35:43;;;;;;;2.40;0.50;;;;;;;8.90;100.00;100958.28;5006476;28;20045;-81
2023/01/18 01:38:13;;;;;;;1.30;0.50;;;;;;;8.91;100.00;100960.06;5009057;28;20130;-85
2023/01/18 01:40:41;;;;;;;1.17;0.55;;;;;;;8.89;100.00;100956.53;5007671;28;20053;-82
2023/01/18 01:43:14;;;;;;;0.85;0.60;;;;;;;8.86;100.00;100953.81;5007001;28;20447;-81
2023/01/18 01:45:42;;;;;;;0.32;0.32;;;;;;;8.83;100.00;100958.00;5005851;28;20608;-83
2023/01/18 01:48:12;;;;;;;1.38;0.50;;;;;;;8.82;100.00;100954.53;5006388;28;20066;-82
2023/01/18 01:50:41;;;;;;;0.68;0.52;;;;;;;8.80;100.00;100951.88;5008932;28;20119;-83
2023/01/18 01:53:12;;;;;;;1.98;0.70;;;;;;;8.79;100.00;100949.22;5006933;28;20038;-79
2023/01/18 01:55:41;;;;;;;1.38;0.22;;;;;;;8.71;100.00;100940.31;5009307;28;20042;-81
2023/01/18 01:58:15;;;;;;;0.77;0.50;;;;;;;8.72;100.00;100942.06;5010630;28;20161;-86
2023/01/18 02:00:45;;;;;;;1.25;0.52;;;;;;;8.73;100.00;100952.47;5008678;28;20128;-82
2023/01/18 02:03:18;;;;;;;0.50;0.38;;;;;;;8.65;100.00;100940.94;5007571;28;20124;-79
2023/01/18 02:05:49;;;;;;;0.63;0.40;;;;;;;8.64;100.00;100951.22;5008869;28;20720;-80
2023/01/18 02:08:22;;;;;;;1.13;0.57;;;;;;;8.64;100.00;100941.78;5008173;28;20079;-78
2023/01/18 02:10:51;;;;;;;0.82;0.50;;;;;;;8.58;100.00;100944.97;5006855;28;20140;-81
2023/01/18 02:13:21;;;;;;;0.63;0.40;;;;;;;8.56;100.00;100938.88;5010708;28;20072;-80
2023/01/18 02:16:00;;;;;;;0.77;0.38;;;;;;;8.51;100.00;100942.97;5011979;28;20034;-77
2023/01/18 02:18:34;;;;;;;1.25;0.57;;;;;;;8.52;100.00;100941.25;5006971;28;20050;-79
2023/01/18 02:21:13;;;;;;;2.05;0.28;;;;;;;8.53;100.00;100943.91;5008764;28;20100;-77
2023/01/18 02:24:13;;;;;;;2.15;0.50;;;;;;;8.52;100.00;100955.06;5007116;28;20053;-79
2023/01/18 02:27:03;;;;;;;2.03;0.50;;;;;;;8.47;100.00;100953.09;5008847;28;20053;-80
2023/01/18 02:29:54;;;;;;;3.10;0.52;;;;;;;8.50;100.00;100950.66;5002447;28;20054;-76
2023/01/18 02:32:30;;;;;;;0.45;0.38;;;;;;;8.51;100.00;100949.81;5007664;28;20397;-81
2023/01/18 02:35:07;;;;;;;1.35;0.38;;;;;;;8.50;100.00;100956.69;5009095;28;20071;-78
2023/01/18 02:37:45;;;;;;;0.52;0.32;;;;;;;8.50;100.00;100946.38;5012124;28;20042;-79
2023/01/18 02:40:20;;;;;;;3.55;0.50;;;;;;;8.52;100.00;100955.06;5011296;28;20092;-79
2023/01/18 02:48:34;;;;;;;0.45;0.35;;;;;;;8.47;100.00;100943.66;5010155;28;20065;-81
2023/01/18 02:51:02;;;;;;;0.70;0.40;;;;;;;8.47;100.00;100937.63;5004732;28;20512;-76
2023/01/18 02:53:32;;;;;;;1.17;0.50;;;;;;;8.44;100.00;100940.97;5012967;28;20042;-80
2023/01/18 02:56:04;;;;;;;2.50;0.30;;;;;;;8.45;100.00;100937.53;5006722;28;20330;-83
2023/01/18 02:58:35;;;;;;;0.77;0.40;;;;;;;8.47;100.00;100946.22;5003365;28;20132;-79
2023/01/18 03:01:09;;;;;;;1.30;0.52;;;;;;;8.49;100.00;100936.84;5007864;28;20050;-79
2023/01/18 03:03:39;;;;;;;1.40;0.40;;;;;;;8.46;100.00;100929.00;5007058;28;20061;-79
2023/01/18 03:06:09;;;;;;;0.77;0.30;;;;;;;8.46;100.00;100929.00;5009472;28;20056;-77
2023/01/18 03:08:43;;;;;;;3.30;0.50;;;;;;;8.45;100.00;100919.50;5005504;28;20054;-78
2023/01/18 03:11:17;;;;;;;2.17;0.25;;;;;;;8.47;100.00;100925.59;5008522;28;20052;-78
2023/01/18 03:13:59;;;;;;;0.55;0.40;;;;;;;8.46;100.00;100923.84;5005096;28;20508;-80
2023/01/18 03:16:40;;;;;;;0.45;0.35;;;;;;;8.45;100.00;100924.66;5008150;28;20652;-78
2023/01/18 03:22:06;;;;;;;0.40;0.32;;;;;;;8.47;100.00;100919.56;5004818;28;20646;-78
2023/01/18 03:24:40;;;;;;;1.67;0.50;;;;;;;8.46;100.00;100928.13;5008003;28;20116;-77
2023/01/18 03:35:31;;;;;;;0.93;0.57;;;;;;;8.43;100.00;100920.25;5009186;28;20056;-77
2023/01/18 03:38:00;;;;;;;2.65;0.77;;;;;;;8.47;100.00;100925.59;5011510;28;20046;-82
2023/01/18 03:40:30;;;;;;;0.40;0.30;;;;;;;8.49;100.00;100918.81;5009647;28;20049;-83
2023/01/18 03:43:09;;;;;;;1.27;0.57;;;;;;;8.49;100.00;100917.94;5008884;28;20049;-81
2023/01/18 03:45:42;;;;;;;1.95;0.90;;;;;;;8.46;100.00;100912.66;5008703;28;20049;-86
2023/01/18 03:48:13;;;;;;;2.78;0.47;;;;;;;8.50;100.00;100925.75;5014305;28;20065;-82
2023/01/18 03:50:49;;;;;;;1.45;0.50;;;;;;;8.50;100.00;100923.16;5008442;28;20049;-79
2023/01/18 03:53:32;;;;;;;0.65;0.50;;;;;;;8.52;100.00;100920.63;5014298;28;20054;-85
2023/01/18 03:56:05;;;;;;;1.83;0.65;;;;;;;8.53;100.00;100920.69;5007204;28;20046;-82
2023/01/18 03:58:37;;;;;;;0.80;0.50;;;;;;;8.55;100.00;100919.06;5006437;28;20057;-81
2023/01/18 04:01:06;;;;;;;0.98;0.30;;;;;;;8.47;100.00;100915.28;5008798;28;20054;-81
2023/01/18 04:03:36;;;;;;;0.57;0.30;;;;;;;8.47;100.00;100910.13;5009034;28;20057;-80
2023/01/18 04:06:08;;;;;;;0.85;0.40;;;;;;;8.46;100.00;100908.38;5009732;28;20124;-84
2023/01/18 04:08:36;;;;;;;0.35;0.20;;;;;;;8.40;100.00;100905.53;5009663;28;20054;-85
2023/01/18 04:11:05;;;;;;;1.35;0.32;;;;;;;8.41;100.00;100893.53;5014799;28;20076;-82
2023/01/18 04:13:34;;;;;;;1.23;0.20;;;;;;;8.38;100.00;100901.97;5009927;28;20050;-82
2023/01/18 04:16:02;;;;;;;1.00;0.52;;;;;;;8.37;99.60;100907.97;5011773;28;20046;-85
2023/01/18 04:18:31;;;;;;;0.38;0.30;;;;;;;8.37;100.00;100907.97;5008944;28;20058;-82
2023/01/18 04:21:01;;;;;;;0.30;0.22;;;;;;;8.23;100.00;100901.38;5006682;28;20049;-82
2023/01/18 04:23:30;;;;;;;2.33;0.60;;;;;;;8.25;100.00;100897.19;5010446;28;20053;-85
2023/01/18 04:25:58;;;;;;;0.50;0.30;;;;;;;8.25;100.00;100902.34;5011194;28;20060;-79
2023/01/18 04:28:27;;;;;;;0.70;0.30;;;;;;;8.25;100.00;100904.91;5008071;28;20060;-81
2023/01/18 04:30:57;;;;;;;0.75;0.30;;;;;;;8.23;100.00;100899.69;5013792;28;20530;-78
2023/01/18 04:33:26;;;;;;;0.20;0.20;;;;;;;8.23;100.00;100901.38;5013938;28;20049;-85
2023/01/18 04:35:55;;;;;;;0.75;0.70;;;;;;;8.24;100.00;100897.97;5013035;28;20046;-85
2023/01/18 04:38:26;;;;;;;0.80;0.38;;;;;;;8.23;100.00;100906.53;5011824;28;20046;-81
2023/01/18 04:40:54;;;;;;;1.35;0.40;;;;;;;8.27;100.00;100900.66;5004973;28;20615;-83
2023/01/18 04:43:23;;;;;;;0.40;0.30;;;;;;;8.28;100.00;100895.59;4999363;28;20050;-84
2023/01/18 04:45:55;;;;;;;0.20;0.20;;;;;;;8.17;100.00;100874.50;5005885;28;20045;-82
2023/01/18 04:48:24;;;;;;;0.80;0.35;;;;;;;8.22;100.00;100877.28;5000035;28;20530;-82
2023/01/18 04:50:53;;;;;;;1.08;0.45;;;;;;;8.26;100.00;100891.19;4989610;28;20065;-84
2023/01/18 04:53:22;;;;;;;0.00;0.00;;;;;;;8.23;100.00;100886.78;4998336;28;20050;-82
2023/01/18 04:55:52;;;;;;;0.52;0.20;;;;;;;8.24;100.00;100887.66;4988492;28;20054;-84
2023/01/18 04:58:21;;;;;;;3.00;0.30;;;;;;;8.25;100.00;100894.59;4992022;28;20116;-80
2023/01/18 05:00:49;;;;;;;0.85;0.40;;;;;;;8.30;100.00;100893.06;4987374;28;20042;-82
2023/01/18 05:03:18;;;;;;;0.57;0.30;;;;;;;8.30;99.46;100895.66;4990357;28;20521;-84
2023/01/18 05:05:46;;;;;;;1.90;0.47;;;;;;;8.27;100.00;100890.34;4997694;28;20526;-86
2023/01/18 05:08:15;;;;;;;0.50;0.30;;;;;;;8.31;100.00;100899.97;4993711;28;20487;-85
2023/01/18 05:10:43;;;;;;;0.35;0.20;;;;;;;8.31;99.68;100893.13;4997512;28;20069;-85
2023/01/18 05:13:14;;;;;;;3.03;0.60;;;;;;;8.35;100.00;100899.28;4990799;28;20050;-84
2023/01/18 05:15:42;;;;;;;0.68;0.38;;;;;;;8.38;100.00;100890.00;4988538;28;20072;-81
2023/01/18 05:18:11;;;;;;;0.80;0.30;;;;;;;8.41;99.64;100889.28;4986755;28;20046;-83
2023/01/18 05:20:39;;;;;;;0.88;0.40;;;;;;;8.42;98.18;100891.03;4990447;28;20118;-83
2023/01/18 05:23:09;;;;;;;0.45;0.30;;;;;;;8.42;99.13;100880.72;4986386;28;20045;-83
2023/01/18 05:25:39;;;;;;;0.88;0.40;;;;;;;8.47;98.19;100892.06;4995165;28;20054;-82
2023/01/18 05:28:09;;;;;;;1.80;0.43;;;;;;;8.50;97.94;100896.50;4990400;28;20563;-83
2023/01/18 05:30:42;;;;;;;1.90;0.70;;;;;;;8.52;98.36;100893.16;4996652;28;20452;-82
2023/01/18 05:33:11;;;;;;;1.17;0.40;;;;;;;8.52;98.43;100892.25;4988848;28;20445;-81
2023/01/18 05:35:39;;;;;;;2.13;0.55;;;;;;;8.49;97.61;100893.03;4990498;28;20049;-85
2023/01/18 05:38:08;;;;;;;0.68;0.40;;;;;;;8.52;96.99;100890.59;4992919;28;20061;-82
2023/01/18 05:40:37;;;;;;;0.82;0.43;;;;;;;8.56;96.95;100894.16;4993448;28;20046;-83
2023/01/18 05:43:05;;;;;;;1.00;0.47;;;;;;;8.58;95.79;100890.81;4992558;28;20110;-85
2023/01/18 05:45:34;;;;;;;0.50;0.40;;;;;;;8.56;95.04;100905.34;4994517;28;20046;-82
2023/01/18 05:48:04;;;;;;;2.47;0.52;;;;;;;8.56;94.28;100896.72;5000665;28;20046;-83
2023/01/18 05:50:33;;;;;;;1.77;0.70;;;;;;;8.59;95.55;100892.59;5014623;28;20590;-86
2023/01/18 05:53:02;;;;;;;1.75;0.65;;;;;;;8.59;93.95;100892.59;5015034;28;20100;-83
2023/01/18 05:55:30;;;;;;;0.73;0.40;;;;;;;8.59;94.29;100883.97;5015793;28;20054;-84
2023/01/18 05:57:59;;;;;;;1.40;0.40;;;;;;;8.63;95.13;100884.94;5011084;28;20046;-84
2023/01/18 06:00:28;;;;;;;0.30;0.30;;;;;;;8.60;94.53;100884.00;5011491;28;20567;-86
2023/01/18 06:02:56;;;;;;;1.10;0.50;;;;;;;8.62;95.52;100878.94;5012298;28;20100;-84
2023/01/18 06:05:27;;;;;;;1.45;0.30;;;;;;;8.62;92.63;100878.94;5010168;28;20061;-84
2023/01/18 06:07:55;;;;;;;0.50;0.40;;;;;;;8.66;93.50;100874.75;5012180;28;20046;-83
2023/01/18 06:10:24;;;;;;;2.38;0.40;;;;;;;8.70;93.97;100877.50;5010298;28;20049;-83
2023/01/18 06:12:52;;;;;;;1.30;0.45;;;;;;;8.74;92.49;100869.06;5010453;28;20046;-84
2023/01/18 06:15:21;;;;;;;0.77;0.32;;;;;;;8.76;92.57;100876.88;5011954;28;20057;-82
2023/01/18 06:17:49;;;;;;;0.40;0.30;;;;;;;8.78;93.94;100877.81;5008975;28;20045;-83
2023/01/18 06:20:18;;;;;;;0.28;0.28;;;;;;;8.81;93.18;100875.34;5004939;28;20042;-85
2023/01/18 06:22:49;;;;;;;0.80;0.35;;;;;;;8.84;91.51;100875.47;5001661;28;20081;-81
2023/01/18 06:25:19;;;;;;;1.33;0.50;;;;;;;8.87;92.01;100874.72;5007284;28;20054;-82
2023/01/18 06:27:47;;;;;;;0.82;0.30;;;;;;;8.87;92.57;100872.16;5009771;28;20605;-83
2023/01/18 06:30:17;;;;;;;1.63;0.40;;;;;;;8.88;91.56;100866.16;5016982;28;20522;-84
2023/01/18 06:32:45;;;;;;;0.93;0.50;;;;;;;8.89;91.80;100868.78;5010806;28;20610;-83
2023/01/18 06:35:14;;;;;;;1.02;0.47;;;;;;;8.90;90.68;100870.53;5011412;28;20601;-84
2023/01/18 06:37:43;;;;;;;1.70;0.70;;;;;;;8.83;89.89;100862.53;5009080;28;20045;-81
2023/01/18 06:40:14;;;;;;;0.43;0.30;;;;;;;8.84;90.69;100870.28;5009494;28;20171;-83
2023/01/18 06:42:43;;;;;;;0.52;0.30;;;;;;;8.74;91.03;100863.03;5011154;28;20057;-83
2023/01/18 06:45:12;;;;;;;1.30;0.43;;;;;;;8.72;90.70;100857.81;5006165;28;20104;-81
2023/01/18 06:47:42;;;;;;;0.95;0.50;;;;;;;8.74;91.51;100861.34;5009022;28;20062;-81
2023/01/18 06:50:12;;;;;;;0.85;0.43;;;;;;;8.73;90.34;100859.59;5008546;28;20046;-79
2023/01/18 06:52:41;;;;;;;0.30;0.22;;;;;;;8.75;91.13;100859.63;5003972;28;20732;-80
2023/01/18 06:55:10;;;;;;;1.45;0.52;;;;;;;8.68;90.84;100842.16;5007281;28;20057;-80
2023/01/18 06:57:40;;;;;;;0.93;0.47;;;;;;;8.76;91.20;100845.91;5007653;28;20050;-80
2023/01/18 07:00:17;;;;;;;0.63;0.30;;;;;;;8.74;94.48;100844.97;5006327;28;20050;-81
2023/01/18 07:02:46;;;;;;;0.57;0.35;;;;;;;8.73;93.05;100838.06;5008080;28;20112;-79
2023/01/18 07:05:14;;;;;;;1.60;0.50;;;;;;;8.72;91.98;100831.13;5008333;28;20061;-80
2023/01/18 07:07:44;;;;;;;0.82;0.40;;;;;;;8.70;91.81;100830.19;5007267;28;20046;-80
2023/01/18 07:10:13;;;;;;;1.02;0.47;;;;;;;8.68;90.95;100826.69;5007546;28;20080;-79
2023/01/18 07:12:47;;;;;;;0.38;0.30;;;;;;;8.71;92.54;100830.28;5007161;28;20065;-78
2023/01/18 07:15:16;;;;;;;1.20;0.50;;;;;;;8.69;90.76;100828.47;5006653;28;20052;-79
2023/01/18 07:17:45;;;;;;;0.70;0.60;;;;;;;8.67;91.98;100830.97;5014154;28;20122;-79
2023/01/18 07:20:16;;;;;;;1.17;0.70;;;;;;;8.67;92.46;100824.94;5006285;28;20046;-80
2023/01/18 07:22:44;;;;;;;2.22;0.70;;;;;;;8.69;91.80;100823.28;5008078;28;20153;-80
2023/01/18 07:25:17;;;;;;;1.95;0.35;;;;;;;8.70;95.46;100822.47;5009350;28;20259;-80
2023/01/18 07:27:47;;;;;;;1.52;0.50;;;;;;;8.67;91.35;100814.63;5012367;28;20081;-82
2023/01/18 07:30:16;;;;;;;1.05;0.40;;;;;;;8.65;90.90;100811.09;5011743;28;20061;-80
2023/01/18 07:32:50;;;;;;;1.25;0.40;;;;;;;8.68;91.36;100818.94;5009405;28;20145;-84
2023/01/18 07:35:20;;;;;;;2.65;0.73;;;;;;;8.65;91.23;100801.66;5014300;28;20049;-81
2023/01/18 07:37:51;;;;;;;2.67;0.38;;;;;;;8.66;91.64;100794.78;5010149;28;20096;-81
2023/01/18 07:40:21;;;;;;;1.33;0.60;;;;;;;8.64;95.60;100804.19;5008883;28;20045;-86
2023/01/18 07:42:58;;;;;;;1.60;0.65;;;;;;;8.64;91.20;100801.63;5004191;28;20057;-81
2023/01/18 07:45:26;;;;;;;3.33;0.70;;;;;;;8.63;91.50;100812.72;5008157;28;20292;-81
2023/01/18 07:48:01;;;;;;;0.47;0.40;;;;;;;8.64;90.57;100811.94;4698275;28;9301473;-84
2023/01/18 07:50:37;;;;;;;1.58;0.70;;;;;;;8.63;90.58;100797.25;5011363;28;20061;-83
2023/01/18 07:53:07;;;;;;;1.23;0.73;;;;;;;8.60;90.31;100804.06;5014402;28;20075;-82
2023/01/18 07:55:37;;;;;;;1.60;0.68;;;;;;;8.57;90.06;100808.22;5010655;28;20046;-82
2023/01/18 07:58:08;;;;;;;0.85;0.77;;;;;;;8.57;88.64;100806.53;5010338;28;20557;-80
2023/01/18 08:00:39;;;;;;;1.20;0.60;;;;;;;8.58;88.51;100800.53;5011709;28;20050;-83
2023/01/18 08:03:08;;;;;;;1.52;0.70;;;;;;;8.58;87.71;100800.53;5009460;28;20222;-81
2023/01/18 08:05:37;;;;;;;0.50;0.43;;;;;;;8.56;87.75;100785.81;5009742;28;20504;-80
2023/01/18 08:08:08;;;;;;;0.70;0.57;;;;;;;8.58;88.66;100787.63;5003154;28;20050;-83
2023/01/18 08:10:37;;;;;;;0.77;0.52;;;;;;;8.57;88.35;100772.13;5008408;28;20038;-80
2023/01/18 08:13:09;;;;;;;1.98;0.60;;;;;;;8.58;88.73;100771.28;5009049;28;20064;-83
2023/01/18 08:15:38;;;;;;;0.60;0.30;;;;;;;8.53;87.71;100778.84;5008668;28;20084;-83
2023/01/18 08:18:08;;;;;;;6.30;0.65;;;;;;;8.57;88.53;100779.88;5009329;28;20496;-83
2023/01/18 08:20:37;;;;;;;0.50;0.40;;;;;;;8.55;87.73;100769.47;5008047;28;20539;-82
2023/01/18 08:23:06;;;;;;;1.65;0.68;;;;;;;8.57;87.69;100767.84;5001547;28;20054;-80
2023/01/18 08:25:34;;;;;;;1.33;0.57;;;;;;;8.55;86.91;100772.06;5010766;28;20076;-81
2023/01/18 08:28:04;;;;;;;1.20;0.60;;;;;;;8.53;85.94;100755.66;5004936;28;20063;-83
2023/01/18 08:30:36;;;;;;;0.73;0.55;;;;;;;8.52;87.73;100753.91;5010034;28;20049;-84
2023/01/18 08:33:06;;;;;;;1.20;0.73;;;;;;;8.49;86.96;100746.03;5008189;28;20053;-81
2023/01/18 08:35:40;;;;;;;1.27;0.70;;;;;;;8.46;87.92;100748.50;5004251;28;20314;-84
2023/01/18 08:38:09;;;;;;;4.20;0.60;;;;;;;8.49;88.14;100733.13;5006775;28;20049;-81
2023/01/18 08:40:38;;;;;;;1.33;0.57;;;;;;;8.41;88.26;100739.72;5006744;28;20720;-82
2023/01/18 08:43:06;;;;;;;1.17;0.50;;;;;;;8.42;86.36;100735.44;5008319;28;20154;-82
2023/01/18 08:45:37;;;;;;;1.15;0.60;;;;;;;8.42;87.44;100735.44;5007506;28;20141;-81
2023/01/18 08:48:08;;;;;;;1.00;0.50;;;;;;;8.44;86.94;100734.66;5009141;28;20132;-80
2023/01/18 08:50:37;;;;;;;0.50;0.50;;;;;;;8.44;87.71;100732.09;5008062;28;20054;-80
2023/01/18 08:53:06;;;;;;;1.00;0.50;;;;;;;8.45;88.25;100733.84;5007088;28;20144;-83
2023/01/18 08:55:36;;;;;;;2.03;0.70;;;;;;;8.45;87.01;100720.06;5007051;28;20053;-80
2023/01/18 08:58:04;;;;;;;2.75;0.80;;;;;;;8.38;86.72;100724.09;5008536;28;20057;-79
2023/01/18 09:00:33;;;;;;;0.68;0.60;;;;;;;8.43;86.51;100727.78;5009163;28;20055;-84
2023/01/18 09:03:05;;;;;;;2.97;0.63;;;;;;;8.39;85.92;100705.22;5012072;28;20046;-82
2023/01/18 09:05:36;;;;;;;1.03;0.90;;;;;;;8.50;87.11;100727.19;5008486;28;20402;-80
2023/01/18 09:08:04;;;;;;;4.03;0.80;;;;;;;8.53;85.92;100724.69;5007484;28;20078;-82
2023/01/18 09:10:36;;;;;;;0.90;0.63;;;;;;;8.57;86.35;100726.56;5009446;28;20064;-83
2023/01/18 09:13:05;;;;;;;0.65;0.47;;;;;;;8.62;86.14;100723.28;5009458;28;20069;-83
2023/01/18 09:15:34;;;;;;;1.05;0.73;;;;;;;8.62;84.89;100712.97;5011252;28;20049;-83
2023/01/18 09:18:06;;;;;;;1.23;0.73;;;;;;;8.63;85.85;100712.16;5008088;28;20070;-82
2023/01/18 09:20:36;;;;;;;1.88;0.80;;;;;;;8.59;85.99;100722.34;5009134;28;20077;-84
2023/01/18 09:23:09;;;;;;;1.80;0.80;;;;;;;8.60;84.85;100734.41;5008057;28;20081;-81
2023/01/18 09:25:38;;;;;;;4.50;0.65;;;;;;;8.64;84.65;100729.41;5011714;28;20050;-81
2023/01/18 09:28:06;;;;;;;0.88;0.63;;;;;;;8.67;85.05;100726.91;5008556;28;20057;-79
2023/01/18 09:30:36;;;;;;;0.77;0.60;;;;;;;8.70;84.22;100727.00;5007444;28;20167;-82
2023/01/18 09:33:06;;;;;;;0.95;0.60;;;;;;;8.72;84.45;100730.53;5005635;28;20149;-82
2023/01/18 09:35:35;;;;;;;1.30;0.70;;;;;;;8.74;84.07;100728.91;5008380;28;20664;-80
2023/01/18 09:38:03;;;;;;;1.27;0.93;;;;;;;8.76;84.61;100727.25;5006638;28;20045;-82
2023/01/18 09:40:43;;;;;;;1.25;0.80;;;;;;;8.78;84.01;100735.94;5005663;28;20165;-79
2023/01/18 09:43:21;;;;;;;1.10;0.45;;;;;;;8.76;83.42;100727.25;5004465;28;20060;-83
2023/01/18 09:45:50;;;;;;;1.45;0.70;;;;;;;8.76;84.93;100728.13;5006428;28;20480;-82
2023/01/18 09:48:38;;;;;;;1.20;0.70;;;;;;;8.79;84.15;100727.34;5007910;28;20081;-83
2023/01/18 09:51:13;;;;;;;2.50;1.00;;;;;;;8.73;84.68;100732.31;5007199;28;20049;-82
2023/01/18 09:53:58;;;;;;;1.92;0.77;;;;;;;8.75;84.09;100725.47;5007991;28;20115;-82
2023/01/18 09:56:29;;;;;;;0.90;0.70;;;;;;;8.76;84.99;100727.25;5007242;28;20066;-80
2023/01/18 09:59:13;;;;;;;1.33;0.90;;;;;;;8.78;84.52;100728.19;5006923;28;20061;-81
2023/01/18 10:01:42;;;;;;;1.30;0.60;;;;;;;8.76;84.72;100722.97;5004816;28;20042;-82
2023/01/18 10:04:20;;;;;;;3.35;0.88;;;;;;;8.81;83.43;100725.72;5006996;28;20042;-80
2023/01/18 10:06:51;;;;;;;1.05;0.73;;;;;;;8.80;84.10;100726.53;5008446;28;20459;-80
2023/01/18 10:09:24;;;;;;;2.20;0.90;;;;;;;8.81;83.06;100725.72;5010535;28;20464;-84
2023/01/18 10:11:58;;;;;;;1.67;0.90;;;;;;;8.84;82.58;100719.78;5011505;28;20468;-80
2023/01/18 10:14:43;;;;;;;1.48;0.73;;;;;;;8.86;83.54;100719.00;5006154;28;20054;-83
2023/01/18 10:17:16;;;;;;;2.47;1.00;;;;;;;8.81;82.55;100702.50;5012112;28;20092;-86
2023/01/18 10:19:47;;;;;;;2.10;0.82;;;;;;;8.86;82.47;100703.53;5010111;28;20138;-82
2023/01/18 10:22:21;;;;;;;2.10;0.70;;;;;;;8.80;81.74;100700.75;5013110;28;20038;-80
2023/01/18 10:24:58;;;;;;;1.63;0.70;;;;;;;8.83;82.02;100703.41;5011112;28;20046;-84
2023/01/18 10:27:50;;;;;;;2.17;0.80;;;;;;;8.81;81.30;100702.50;5007667;28;20304;-83
2023/01/18 10:30:49;;;;;;;1.88;0.90;;;;;;;8.86;81.45;100698.34;5014727;28;20519;-85
2023/01/18 10:33:23;;;;;;;1.80;0.75;;;;;;;8.89;81.04;100692.47;5006136;28;20151;-81
2023/01/18 10:35:56;;;;;;;0.95;0.70;;;;;;;8.90;81.70;100681.28;5010094;28;20091;-81
2023/01/18 10:38:27;;;;;;;1.75;0.70;;;;;;;8.89;80.83;100684.72;5009392;28;20096;-81
2023/01/18 10:40:58;;;;;;;1.33;0.80;;;;;;;8.83;79.80;100677.63;5007874;28;20045;-81
2023/01/18 10:43:28;;;;;;;1.17;0.73;;;;;;;8.86;80.26;100677.72;5005381;28;20054;-81
2023/01/18 10:45:58;;;;;;;1.23;0.60;;;;;;;8.90;80.70;100670.97;5010449;28;20069;-83
2023/01/18 10:48:30;;;;;;;0.70;0.50;;;;;;;8.86;79.64;100676.84;5003250;28;20062;-81
2023/01/18 10:51:02;;;;;;;1.67;0.70;;;;;;;8.84;80.24;100663.88;5003837;28;20050;-83
2023/01/18 10:53:32;;;;;;;0.73;0.40;;;;;;;8.86;79.59;100667.41;5005774;28;20064;-82
2023/01/18 10:56:04;;;;;;;1.42;0.88;;;;;;;8.86;79.93;100672.56;5007738;28;20046;-81
2023/01/18 10:58:35;;;;;;;1.60;0.60;;;;;;;8.88;78.94;100665.75;5007111;28;20524;-82
2023/01/18 11:01:05;;;;;;;2.25;1.05;;;;;;;8.87;78.22;100666.59;5008030;28;20101;-81
2023/01/18 11:03:51;;;;;;;1.08;0.60;;;;;;;8.89;78.72;100666.66;5007750;28;20062;-79
2023/01/18 11:06:23;;;;;;;1.35;0.68;;;;;;;8.84;78.91;100658.72;5007154;28;20101;-82
2023/01/18 11:08:52;;;;;;;1.47;0.73;;;;;;;8.83;78.44;100649.25;5006955;28;20608;-80
2023/01/18 11:14:29;;;;;;;1.10;0.50;;;;;;;8.91;79.07;100652.97;5006678;28;20056;-79
2023/01/18 11:17:02;;;;;;;2.95;0.93;;;;;;;8.92;78.96;100646.97;5003305;28;20049;-81
2023/01/18 11:19:31;;;;;;;2.42;0.98;;;;;;;8.92;78.63;100649.56;5002839;28;20045;-79
2023/01/18 11:22:02;;;;;;;0.88;0.50;;;;;;;8.88;79.20;100634.78;5010707;28;20101;-81
2023/01/18 11:24:33;;;;;;;1.00;0.65;;;;;;;8.88;78.68;100633.91;5009496;28;20121;-80
2023/01/18 11:27:04;;;;;;;2.08;1.00;;;;;;;8.87;79.30;100633.03;5008168;28;20054;-80
2023/01/18 11:29:35;;;;;;;1.30;0.80;;;;;;;8.89;79.64;100633.97;5007378;28;20072;-83
2023/01/18 11:32:05;;;;;;;0.85;0.60;;;;;;;8.89;79.85;100633.97;5006033;28;20479;-78
2023/01/18 11:34:36;;;;;;;3.40;0.68;;;;;;;8.91;79.25;100634.91;5008667;28;20519;-84
2023/01/18 11:37:30;;;;;;;0.73;0.70;;;;;;;8.89;79.12;100626.25;5006026;28;20050;-80
2023/01/18 11:39:59;;;;;;;1.70;0.70;;;;;;;8.88;80.15;100609.00;5007984;28;20586;-81
2023/01/18 11:42:30;;;;;;;2.58;0.82;;;;;;;8.89;79.59;100607.31;5007084;28;20061;-78
2023/01/18 11:45:20;;;;;;;1.13;0.70;;;;;;;8.90;80.41;100602.19;5009449;28;20129;-78
2023/01/18 11:48:00;;;;;;;1.40;0.57;;;;;;;8.90;79.35;100602.19;5008416;28;20046;-81
2023/01/18 11:50:39;;;;;;;1.13;0.70;;;;;;;8.89;79.97;100599.56;5007222;28;20050;-79
2023/01/18 11:53:25;;;;;;;1.23;0.60;;;;;;;8.84;80.03;100590.78;5011375;28;20049;-80
2023/01/18 11:56:04;;;;;;;1.05;0.60;;;;;;;8.91;81.13;100592.72;5011672;28;20058;-79
2023/01/18 11:58:34;;;;;;;0.88;0.45;;;;;;;8.88;81.39;100588.34;5002623;28;20049;-79
2023/01/18 12:01:26;;;;;;;1.15;0.60;;;;;;;8.91;81.62;100593.63;5006860;28;20050;-82
2023/01/18 12:04:01;;;;;;;1.02;0.60;;;;;;;8.91;80.69;100588.47;5009033;28;20104;-82
2023/01/18 12:06:40;;;;;;;1.40;0.70;;;;;;;8.91;80.72;100593.63;5007413;28;20050;-80
2023/01/18 12:09:22;;;;;;;1.52;0.60;;;;;;;8.91;80.71;100593.63;5008180;28;20412;-81
2023/01/18 12:12:01;;;;;;;1.48;0.55;;;;;;;8.89;81.61;100584.97;5010622;28;20045;-79
2023/01/18 12:14:49;;;;;;;0.90;0.80;;;;;;;8.90;81.45;100584.13;5011838;28;20045;-81
2023/01/18 12:17:33;;;;;;;0.85;0.60;;;;;;;8.92;81.34;100579.88;5004907;28;20191;-79
2023/01/18 12:20:19;;;;;;;2.97;0.80;;;;;;;8.93;82.17;100576.50;5009425;28;20090;-81
2023/01/18 12:23:11;;;;;;;0.73;0.55;;;;;;;8.90;82.39;100578.97;5009501;28;20053;-80
2023/01/18 12:26:19;;;;;;;0.60;0.40;;;;;;;8.89;83.50;100566.03;5008614;28;20639;-82
2023/01/18 12:29:16;;;;;;;1.33;0.43;;;;;;;8.88;83.09;100552.22;4985216;28;20053;-84
2023/01/18 12:31:57;;;;;;;0.30;0.28;;;;;;;8.88;83.65;100547.06;5005519;28;20057;-79
2023/01/18 12:34:37;;;;;;;0.43;0.35;;;;;;;8.88;84.24;100535.88;5004425;28;20062;-79